Terminal Aerodrome Forecast
Issued by NWS

Home | Current Version | Previous Version | Text Only | Print | Product List | Glossary On
Versions: 1 2 3 4 5 6 7 8 9 10 11 12 13 14
695
FTUS43 KEAX 112320
TAFSTJ
TAF
KSTJ 112320Z 1200/1224 14007KT P6SM SCT080 BKN100
     FM120900 35007KT P6SM SCT025 BKN035
     FM121500 35014KT P6SM SCT025=

USA.gov is the U.S. government's official web portal to all federal, state and local government web resources and services.